Time;durP1;ratioP1;P1;durP2;ratioP2;P2;SDS_P1;SDS_P2;PMS_P1;PMS_P2;Temp;Humidity;BMP_temperature;BMP_pressure;BME280_temperature;BME280_humidity;BME280_pressure;Samples;Min_cycle;Max_cycle;Signal;HPM_P1;HPM_P2
2022/08/24 00:01:44;;;;;;;;;;;;;;;;;;5041446;28;1586;-62
2022/08/24 00:04:09;;;;;;;;;;;;;;;;;;5037320;28;1918;-62
2022/08/24 00:06:34;;;;;;;;;;;;;;;;;;5041129;28;1558;-62
2022/08/24 00:08:59;;;;;;;;;;;;;;;;;;5041578;28;1506;-62
2022/08/24 00:11:25;;;;;;;;;;;;;;;;;;5041289;28;1587;-62
2022/08/24 00:13:50;;;;;;;;;;;;;;;;;;5031543;28;1346;-62
2022/08/24 00:16:15;;;;;;;;;;;;;;;;;;5023204;28;1607;-62
2022/08/24 00:18:41;;;;;;;;;;;;;;;;;;5040312;28;1184;-62
2022/08/24 00:21:07;;;;;;;;;;;;;;;;;;5023643;28;1396;-62
2022/08/24 00:23:32;;;;;;;;;;;;;;;;;;5040876;28;1546;-62
2022/08/24 00:25:57;;;;;;;;;;;;;;;;;;5039848;28;1969;-62
2022/08/24 00:28:22;;;;;;;;;;;;;;;;;;5048837;28;1459;-62
2022/08/24 00:30:48;;;;;;;;;;;;;;;;;;5040877;28;1306;-62
2022/08/24 00:33:13;;;;;;;;;;;;;;;;;;5040073;28;1316;-62
2022/08/24 00:35:38;;;;;;;;;;;;;;;;;;5040466;28;1275;-62
2022/08/24 00:38:03;;;;;;;;;;;;;;;;;;5041224;28;1463;-62
2022/08/24 00:40:32;;;;;;;;;;;;;;;;;;5022817;28;1499;-62
2022/08/24 00:43:03;;;;;;;;;;;;;;;;;;5022533;28;1539;-62
2022/08/24 00:45:28;;;;;;;;;;;;;;;;;;5038965;28;1957;-62
2022/08/24 00:47:58;;;;;;;;;;;;;;;;;;5040388;28;1295;-62
2022/08/24 00:50:44;;;;;;;;;;;;;;;;;;5021361;28;897;-62
2022/08/24 00:53:12;;;;;;;;;;;;;;;;;;5038532;28;1523;-62
2022/08/24 00:55:40;;;;;;;;;;;;;;;;;;5041238;28;1894;-63
2022/08/24 00:58:12;;;;;;;;;;;;;;;;;;5046865;28;1649;-62
2022/08/24 01:00:42;;;;;;;;;;;;;;;;;;5027158;28;1291;-62
2022/08/24 01:03:07;;;;;;;;;;;;;;;;;;5042750;28;1206;-61
2022/08/24 01:05:33;;;;;;;;;;;;;;;;;;5022247;28;1965;-61
2022/08/24 01:07:59;;;;;;;;;;;;;;;;;;5041621;28;1582;-62
2022/08/24 01:10:25;;;;;;;;;;;;;;;;;;5044113;28;1296;-61
2022/08/24 01:12:52;;;;;;;;;;;;;;;;;;5042940;28;1662;-62
2022/08/24 01:15:19;;;;;;;;;;;;;;;;;;5044016;28;1427;-62
2022/08/24 01:20:29;;;;;;;;;;;;;;;;;;5044188;28;1261;-61
2022/08/24 01:22:54;;;;;;;;;;;;;;;;;;5043207;28;1562;-62
2022/08/24 01:25:21;;;;;;;;;;;;;;;;;;5042739;28;1959;-62
2022/08/24 01:27:46;;;;;;;;;;;;;;;;;;5043917;28;1558;-62
2022/08/24 01:30:13;;;;;;;;;;;;;;;;;;5042902;28;1237;-61
2022/08/24 01:32:39;;;;;;;;;;;;;;;;;;5037506;28;1649;-62
2022/08/24 01:35:04;;;;;;;;;;;;;;;;;;5043389;28;1286;-62
2022/08/24 01:37:31;;;;;;;;;;;;;;;;;;5043221;28;1614;-62
2022/08/24 01:39:57;;;;;;;;;;;;;;;;;;5048385;28;1582;-62
2022/08/24 01:42:23;;;;;;;;;;;;;;;;;;5048515;28;1269;-62
2022/08/24 01:44:48;;;;;;;;;;;;;;;;;;5043396;28;1902;-62
2022/08/24 01:47:15;;;;;;;;;;;;;;;;;;5045028;28;1536;-63
2022/08/24 01:49:43;;;;;;;;;;;;;;;;;;5025869;28;1448;-63
2022/08/24 01:52:10;;;;;;;;;;;;;;;;;;5042470;28;1491;-63
2022/08/24 01:54:35;;;;;;;;;;;;;;;;;;5043083;28;1562;-62
2022/08/24 01:57:01;;;;;;;;;;;;;;;;;;5042048;28;1522;-63
2022/08/24 01:59:26;;;;;;;;;;;;;;;;;;5025785;28;1622;-63
2022/08/24 02:01:53;;;;;;;;;;;;;;;;;;5041317;28;1634;-62
2022/08/24 02:04:19;;;;;;;;;;;;;;;;;;5043195;28;1914;-63
2022/08/24 02:06:44;;;;;;;;;;;;;;;;;;5041181;28;1395;-62
2022/08/24 02:09:09;;;;;;;;;;;;;;;;;;5043098;28;1252;-63
2022/08/24 02:11:35;;;;;;;;;;;;;;;;;;5043337;28;1467;-62
2022/08/24 02:14:00;;;;;;;;;;;;;;;;;;5045375;28;1661;-63
2022/08/24 02:16:26;;;;;;;;;;;;;;;;;;5048147;28;1195;-62
2022/08/24 02:18:51;;;;;;;;;;;;;;;;;;5042365;28;1257;-62
2022/08/24 02:21:16;;;;;;;;;;;;;;;;;;5042937;28;1562;-62
2022/08/24 02:23:42;;;;;;;;;;;;;;;;;;5044584;28;1618;-62
2022/08/24 02:26:08;;;;;;;;;;;;;;;;;;5043654;28;1886;-62
2022/08/24 02:28:34;;;;;;;;;;;;;;;;;;5042972;28;1289;-62
2022/08/24 02:31:00;;;;;;;;;;;;;;;;;;5025950;28;1544;-62
2022/08/24 02:33:25;;;;;;;;;;;;;;;;;;5040050;28;1801;-62
2022/08/24 02:35:51;;;;;;;;;;;;;;;;;;5042377;28;1578;-62
2022/08/24 02:38:16;;;;;;;;;;;;;;;;;;5041824;28;1622;-62
2022/08/24 02:40:42;;;;;;;;;;;;;;;;;;5024789;28;1515;-62
2022/08/24 02:43:07;;;;;;;;;;;;;;;;;;5041916;28;1588;-63
2022/08/24 02:45:37;;;;;;;;;;;;;;;;;;5044097;28;1894;-63
2022/08/24 02:48:02;;;;;;;;;;;;;;;;;;5044357;28;1558;-63
2022/08/24 02:50:28;;;;;;;;;;;;;;;;;;5042923;28;795;-62
2022/08/24 02:52:53;;;;;;;;;;;;;;;;;;5040628;28;1916;-62
2022/08/24 02:55:18;;;;;;;;;;;;;;;;;;5046113;28;1654;-62
2022/08/24 02:57:43;;;;;;;;;;;;;;;;;;5043307;28;1539;-62
2022/08/24 03:00:10;;;;;;;;;;;;;;;;;;5041703;28;1233;-62
2022/08/24 03:02:36;;;;;;;;;;;;;;;;;;5043659;28;1537;-63
2022/08/24 03:05:02;;;;;;;;;;;;;;;;;;5041972;28;1898;-63
2022/08/24 03:07:27;;;;;;;;;;;;;;;;;;5042356;28;1566;-63
2022/08/24 03:09:52;;;;;;;;;;;;;;;;;;5042456;28;1063;-63
2022/08/24 03:12:17;;;;;;;;;;;;;;;;;;5042810;28;1630;-62
2022/08/24 03:14:43;;;;;;;;;;;;;;;;;;5041986;28;1431;-62
2022/08/24 03:17:08;;;;;;;;;;;;;;;;;;5040187;28;1950;-62
2022/08/24 03:19:34;;;;;;;;;;;;;;;;;;5042300;28;1649;-62
2022/08/24 03:21:59;;;;;;;;;;;;;;;;;;5041602;28;1559;-62
2022/08/24 03:24:24;;;;;;;;;;;;;;;;;;5041732;28;1894;-62
2022/08/24 03:26:49;;;;;;;;;;;;;;;;;;5046758;28;1543;-63
2022/08/24 03:29:15;;;;;;;;;;;;;;;;;;5025480;28;1312;-63
2022/08/24 03:31:40;;;;;;;;;;;;;;;;;;5039697;28;1657;-63
2022/08/24 03:34:05;;;;;;;;;;;;;;;;;;5041029;28;1287;-62
2022/08/24 03:36:30;;;;;;;;;;;;;;;;;;5041407;28;1221;-62
2022/08/24 03:38:56;;;;;;;;;;;;;;;;;;5041781;28;1570;-62
2022/08/24 03:41:21;;;;;;;;;;;;;;;;;;5043135;28;1614;-62
2022/08/24 03:43:47;;;;;;;;;;;;;;;;;;5041962;28;1299;-62
2022/08/24 03:46:21;;;;;;;;;;;;;;;;;;5039815;28;2249;-62
2022/08/24 03:48:47;;;;;;;;;;;;;;;;;;5040684;28;1555;-62
2022/08/24 03:51:14;;;;;;;;;;;;;;;;;;5039645;28;1269;-62
2022/08/24 03:53:39;;;;;;;;;;;;;;;;;;5049465;28;1408;-63
2022/08/24 03:56:05;;;;;;;;;;;;;;;;;;5042050;28;1361;-62
2022/08/24 03:58:30;;;;;;;;;;;;;;;;;;5041605;28;1077;-62
2022/08/24 04:00:55;;;;;;;;;;;;;;;;;;5046813;28;1416;-62
2022/08/24 04:03:20;;;;;;;;;;;;;;;;;;5042266;28;1163;-62
2022/08/24 04:05:46;;;;;;;;;;;;;;;;;;5040906;28;1955;-62
2022/08/24 04:08:12;;;;;;;;;;;;;;;;;;5039641;28;1527;-61
2022/08/24 04:10:42;;;;;;;;;;;;;;;;;;5041243;28;1084;-62
2022/08/24 04:13:07;;;;;;;;;;;;;;;;;;5046685;28;1650;-62
2022/08/24 04:15:32;;;;;;;;;;;;;;;;;;5044176;28;1330;-62
2022/08/24 04:17:57;;;;;;;;;;;;;;;;;;5048256;28;1132;-62
2022/08/24 04:20:24;;;;;;;;;;;;;;;;;;5023830;28;1262;-62
2022/08/24 04:22:50;;;;;;;;;;;;;;;;;;5041132;28;1172;-62
2022/08/24 04:25:15;;;;;;;;;;;;;;;;;;5044288;28;1903;-63
2022/08/24 04:27:40;;;;;;;;;;;;;;;;;;5042023;28;1455;-62
2022/08/24 04:30:06;;;;;;;;;;;;;;;;;;5040666;28;1241;-62
2022/08/24 04:32:31;;;;;;;;;;;;;;;;;;5048918;28;1310;-62
2022/08/24 04:34:58;;;;;;;;;;;;;;;;;;5033897;28;1342;-62
2022/08/24 04:37:23;;;;;;;;;;;;;;;;;;5031328;28;1229;-62
2022/08/24 04:39:48;;;;;;;;;;;;;;;;;;5038731;28;1288;-64
2022/08/24 04:42:13;;;;;;;;;;;;;;;;;;5039254;28;1272;-64
2022/08/24 04:44:39;;;;;;;;;;;;;;;;;;5040946;28;1981;-64
2022/08/24 04:47:04;;;;;;;;;;;;;;;;;;5039868;28;1531;-64
2022/08/24 04:49:29;;;;;;;;;;;;;;;;;;5041082;28;1475;-64
2022/08/24 04:51:55;;;;;;;;;;;;;;;;;;5037727;28;1842;-64
2022/08/24 04:54:20;;;;;;;;;;;;;;;;;;5040058;28;1739;-64
2022/08/24 04:56:46;;;;;;;;;;;;;;;;;;5040530;28;1040;-64
2022/08/24 04:59:11;;;;;;;;;;;;;;;;;;5040404;28;862;-64
2022/08/24 05:01:36;;;;;;;;;;;;;;;;;;5040578;28;977;-64
2022/08/24 05:04:02;;;;;;;;;;;;;;;;;;5045117;28;1898;-64
2022/08/24 05:06:28;;;;;;;;;;;;;;;;;;5060305;28;1180;-64
2022/08/24 05:08:54;;;;;;;;;;;;;;;;;;5040329;28;1514;-64
2022/08/24 05:11:20;;;;;;;;;;;;;;;;;;5040801;28;846;-64
2022/08/24 05:13:45;;;;;;;;;;;;;;;;;;5023112;28;890;-64
2022/08/24 05:16:12;;;;;;;;;;;;;;;;;;5040012;28;1470;-64
2022/08/24 05:18:37;;;;;;;;;;;;;;;;;;5040112;28;1001;-64
2022/08/24 05:21:07;;;;;;;;;;;;;;;;;;5039498;28;1347;-64
2022/08/24 05:23:33;;;;;;;;;;;;;;;;;;5039733;28;1570;-65
2022/08/24 05:25:58;;;;;;;;;;;;;;;;;;5040104;28;1953;-65
2022/08/24 05:28:23;;;;;;;;;;;;;;;;;;5040382;28;1010;-64
2022/08/24 05:30:48;;;;;;;;;;;;;;;;;;5037421;28;1558;-65
2022/08/24 05:33:13;;;;;;;;;;;;;;;;;;5029567;28;1589;-64
2022/08/24 05:35:39;;;;;;;;;;;;;;;;;;5022273;28;1184;-65
2022/08/24 05:38:05;;;;;;;;;;;;;;;;;;5039997;28;1596;-65
2022/08/24 05:40:30;;;;;;;;;;;;;;;;;;5040223;28;1446;-64
2022/08/24 05:42:55;;;;;;;;;;;;;;;;;;5040396;28;1008;-64
2022/08/24 05:45:21;;;;;;;;;;;;;;;;;;5040123;28;1957;-66
2022/08/24 05:47:46;;;;;;;;;;;;;;;;;;5040021;28;1499;-64
2022/08/24 05:50:11;;;;;;;;;;;;;;;;;;5040138;28;1191;-64
2022/08/24 05:52:36;;;;;;;;;;;;;;;;;;5039457;28;1436;-64
2022/08/24 05:55:02;;;;;;;;;;;;;;;;;;5042077;28;1306;-64
2022/08/24 05:57:30;;;;;;;;;;;;;;;;;;5025617;28;1299;-64
2022/08/24 05:59:55;;;;;;;;;;;;;;;;;;5044628;28;1456;-64
2022/08/24 06:02:21;;;;;;;;;;;;;;;;;;5043756;28;1495;-65
2022/08/24 06:04:47;;;;;;;;;;;;;;;;;;5042787;28;1957;-65
2022/08/24 06:07:12;;;;;;;;;;;;;;;;;;5043020;28;1550;-65
2022/08/24 06:09:38;;;;;;;;;;;;;;;;;;5031451;28;1346;-65
2022/08/24 06:12:03;;;;;;;;;;;;;;;;;;5040589;28;1440;-65
2022/08/24 06:14:29;;;;;;;;;;;;;;;;;;5024890;28;1543;-64
2022/08/24 06:16:54;;;;;;;;;;;;;;;;;;5038833;28;1487;-65
2022/08/24 06:19:19;;;;;;;;;;;;;;;;;;5063116;28;874;-65
2022/08/24 06:21:46;;;;;;;;;;;;;;;;;;5050553;28;1427;-65
2022/08/24 06:24:14;;;;;;;;;;;;;;;;;;5042564;28;1898;-65
2022/08/24 06:29:23;;;;;;;;;;;;;;;;;;5031660;28;1460;-65
2022/08/24 06:31:48;;;;;;;;;;;;;;;;;;5042516;28;1400;-65
2022/08/24 06:34:15;;;;;;;;;;;;;;;;;;5042733;28;977;-65
2022/08/24 06:36:40;;;;;;;;;;;;;;;;;;5060608;28;1554;-65
2022/08/24 06:39:07;;;;;;;;;;;;;;;;;;5046213;28;1591;-64
2022/08/24 06:41:32;;;;;;;;;;;;;;;;;;5042388;28;885;-65
2022/08/24 06:43:58;;;;;;;;;;;;;;;;;;5042974;28;791;-65
2022/08/24 06:46:23;;;;;;;;;;;;;;;;;;5042323;28;1890;-65
2022/08/24 06:48:49;;;;;;;;;;;;;;;;;;5037596;28;1625;-65
2022/08/24 06:51:15;;;;;;;;;;;;;;;;;;5042165;28;1785;-65
2022/08/24 06:53:41;;;;;;;;;;;;;;;;;;5039539;28;2025;-65
2022/08/24 06:56:06;;;;;;;;;;;;;;;;;;5045894;28;1444;-63
2022/08/24 06:58:32;;;;;;;;;;;;;;;;;;5044890;28;1334;-64
2022/08/24 07:00:58;;;;;;;;;;;;;;;;;;5049886;28;1265;-63
2022/08/24 07:03:24;;;;;;;;;;;;;;;;;;5046732;28;1247;-63
2022/08/24 07:05:50;;;;;;;;;;;;;;;;;;5054410;28;1953;-64
2022/08/24 07:08:16;;;;;;;;;;;;;;;;;;5044125;28;1304;-64
2022/08/24 07:10:41;;;;;;;;;;;;;;;;;;5045402;28;1244;-63
2022/08/24 07:13:06;;;;;;;;;;;;;;;;;;5043716;28;1322;-63
2022/08/24 07:15:33;;;;;;;;;;;;;;;;;;5041841;28;1618;-65
2022/08/24 07:17:58;;;;;;;;;;;;;;;;;;5046538;28;1374;-73
2022/08/24 07:20:23;;;;;;;;;;;;;;;;;;5053269;28;1179;-75
2022/08/24 07:22:49;;;;;;;;;;;;;;;;;;5057850;28;1315;-75
2022/08/24 07:25:14;;;;;;;;;;;;;;;;;;5047480;28;1901;-75
2022/08/24 07:27:39;;;;;;;;;;;;;;;;;;5047714;28;1277;-77
2022/08/24 07:30:05;;;;;;;;;;;;;;;;;;5047349;28;1562;-76
2022/08/24 07:32:31;;;;;;;;;;;;;;;;;;5053609;28;1300;-75
2022/08/24 07:34:56;;;;;;;;;;;;;;;;;;5031463;28;1365;-78
2022/08/24 07:37:21;;;;;;;;;;;;;;;;;;5047067;28;1242;-74
2022/08/24 07:39:46;;;;;;;;;;;;;;;;;;5050457;28;1496;-74
2022/08/24 07:42:12;;;;;;;;;;;;;;;;;;5050528;28;1359;-74
2022/08/24 07:44:38;;;;;;;;;;;;;;;;;;5051041;28;1976;-75
2022/08/24 07:47:03;;;;;;;;;;;;;;;;;;5048299;28;1367;-75
2022/08/24 07:49:28;;;;;;;;;;;;;;;;;;5050719;28;1255;-72
2022/08/24 07:51:53;;;;;;;;;;;;;;;;;;5054211;28;1263;-75
2022/08/24 07:54:19;;;;;;;;;;;;;;;;;;5049478;28;1579;-76
2022/08/24 07:56:44;;;;;;;;;;;;;;;;;;5045226;28;1587;-76
2022/08/24 07:59:10;;;;;;;;;;;;;;;;;;5048059;28;1455;-74
2022/08/24 08:01:35;;;;;;;;;;;;;;;;;;5043838;28;1293;-73
2022/08/24 08:04:00;;;;;;;;;;;;;;;;;;5045077;28;1581;-74
2022/08/24 08:06:26;;;;;;;;;;;;;;;;;;5043819;28;1941;-73
2022/08/24 08:08:51;;;;;;;;;;;;;;;;;;5041805;28;1743;-73
2022/08/24 08:11:16;;;;;;;;;;;;;;;;;;5043132;28;1535;-74
2022/08/24 08:13:41;;;;;;;;;;;;;;;;;;5048661;28;1570;-75
2022/08/24 08:16:07;;;;;;;;;;;;;;;;;;5040499;28;1424;-76
2022/08/24 08:18:32;;;;;;;;;;;;;;;;;;5047641;28;1268;-75
2022/08/24 08:20:57;;;;;;;;;;;;;;;;;;5046066;28;1320;-75
2022/08/24 08:26:07;;;;;;;;;;;;;;;;;;5047392;28;1894;-73
2022/08/24 08:28:32;;;;;;;;;;;;;;;;;;5043239;28;1294;-74
2022/08/24 08:30:58;;;;;;;;;;;;;;;;;;5047144;28;1411;-72
2022/08/24 08:33:24;;;;;;;;;;;;;;;;;;5043488;28;1582;-76
2022/08/24 08:35:51;;;;;;;;;;;;;;;;;;5032360;28;1365;-72
2022/08/24 08:38:16;;;;;;;;;;;;;;;;;;5052884;28;1345;-76
2022/08/24 08:40:54;;;;;;;;;;;;;;;;;;5050685;28;1256;-74
2022/08/24 08:43:36;;;;;;;;;;;;;;;;;;5045635;28;1320;-77
2022/08/24 08:46:20;;;;;;;;;;;;;;;;;;5049095;28;1902;-76
2022/08/24 08:48:54;;;;;;;;;;;;;;;;;;5048790;28;1246;-74
2022/08/24 08:51:22;;;;;;;;;;;;;;;;;;5051699;28;1195;-75
2022/08/24 08:54:07;;;;;;;;;;;;;;;;;;5050659;28;1413;-74
2022/08/24 08:56:32;;;;;;;;;;;;;;;;;;5053110;28;1757;-73
2022/08/24 08:59:00;;;;;;;;;;;;;;;;;;5051910;28;1266;-75
2022/08/24 09:01:43;;;;;;;;;;;;;;;;;;5045650;28;1290;-75
2022/08/24 09:04:33;;;;;;;;;;;;;;;;;;5045149;28;1967;-65
2022/08/24 09:07:04;;;;;;;;;;;;;;;;;;5050492;28;1385;-65
2022/08/24 09:09:47;;;;;;;;;;;;;;;;;;5051381;28;1444;-65
2022/08/24 09:12:13;;;;;;;;;;;;;;;;;;5047962;28;1298;-65
2022/08/24 09:14:58;;;;;;;;;;;;;;;;;;5054878;28;1258;-65
2022/08/24 09:17:32;;;;;;;;;;;;;;;;;;5051056;28;1460;-65
2022/08/24 09:19:57;;;;;;;;;;;;;;;;;;5047020;28;1243;-65
2022/08/24 09:22:22;;;;;;;;;;;;;;;;;;5050183;28;1435;-65
2022/08/24 09:24:53;;;;;;;;;;;;;;;;;;5051689;28;1965;-65
2022/08/24 09:27:28;;;;;;;;;;;;;;;;;;5048966;28;1370;-65
2022/08/24 09:30:05;;;;;;;;;;;;;;;;;;5047038;28;1215;-64
2022/08/24 09:32:36;;;;;;;;;;;;;;;;;;5052067;28;1255;-65
2022/08/24 09:35:02;;;;;;;;;;;;;;;;;;5055232;28;1387;-65
2022/08/24 09:37:46;;;;;;;;;;;;;;;;;;5052605;28;1400;-66
2022/08/24 09:40:30;;;;;;;;;;;;;;;;;;5053561;28;1246;-65
2022/08/24 09:43:10;;;;;;;;;;;;;;;;;;5054045;28;1234;-65
2022/08/24 09:45:35;;;;;;;;;;;;;;;;;;5053091;28;1890;-65
2022/08/24 09:48:13;;;;;;;;;;;;;;;;;;5033950;28;1307;-65
2022/08/24 09:50:56;;;;;;;;;;;;;;;;;;5048827;28;1302;-65
2022/08/24 09:53:21;;;;;;;;;;;;;;;;;;5048554;28;1402;-65
2022/08/24 09:55:49;;;;;;;;;;;;;;;;;;5046606;28;1298;-65
2022/08/24 09:58:20;;;;;;;;;;;;;;;;;;5052737;28;1276;-65
2022/08/24 10:01:12;;;;;;;;;;;;;;;;;;5053801;28;1224;-65
2022/08/24 10:03:54;;;;;;;;;;;;;;;;;;5016292;28;1519;-65
2022/08/24 10:06:27;;;;;;;;;;;;;;;;;;5046453;28;1886;-65
2022/08/24 10:09:09;;;;;;;;;;;;;;;;;;5048356;28;1271;-66
2022/08/24 10:11:44;;;;;;;;;;;;;;;;;;5050996;28;1298;-65
2022/08/24 10:14:16;;;;;;;;;;;;;;;;;;5051933;28;1263;-65
2022/08/24 10:16:53;;;;;;;;;;;;;;;;;;5052720;28;1204;-65
2022/08/24 10:19:44;;;;;;;;;;;;;;;;;;5050088;28;1440;-65
2022/08/24 10:22:26;;;;;;;;;;;;;;;;;;5044678;28;1318;-64
2022/08/24 10:25:14;;;;;;;;;;;;;;;;;;5023057;28;1898;-64
2022/08/24 10:28:01;;;;;;;;;;;;;;;;;;5035417;28;1839;-64
2022/08/24 10:30:38;;;;;;;;;;;;;;;;;;5043006;28;843;-65
2022/08/24 10:33:12;;;;;;;;;;;;;;;;;;5040412;28;1491;-63
2022/08/24 10:35:57;;;;;;;;;;;;;;;;;;5044799;28;1551;-62
2022/08/24 10:41:16;;;;;;;;;;;;;;;;;;5051198;28;1321;-64
2022/08/24 10:44:00;;;;;;;;;;;;;;;;;;5034184;28;1262;-62
2022/08/24 10:46:44;;;;;;;;;;;;;;;;;;5049089;28;1902;-63
2022/08/24 10:49:12;;;;;;;;;;;;;;;;;;5049380;28;1332;-63
2022/08/24 10:51:53;;;;;;;;;;;;;;;;;;5045370;28;1377;-63
2022/08/24 10:54:18;;;;;;;;;;;;;;;;;;5046606;28;1240;-63
2022/08/24 10:56:46;;;;;;;;;;;;;;;;;;5057236;28;1263;-63
2022/08/24 10:59:14;;;;;;;;;;;;;;;;;;5050502;28;1332;-63
2022/08/24 11:01:57;;;;;;;;;;;;;;;;;;5046395;28;1485;-63
2022/08/24 11:04:27;;;;;;;;;;;;;;;;;;5051077;28;1893;-63
2022/08/24 11:07:11;;;;;;;;;;;;;;;;;;5046040;28;1287;-62
2022/08/24 11:09:45;;;;;;;;;;;;;;;;;;5047266;28;1602;-62
2022/08/24 11:12:22;;;;;;;;;;;;;;;;;;5051534;28;1383;-61
2022/08/24 11:14:47;;;;;;;;;;;;;;;;;;5046607;28;1339;-62
2022/08/24 11:17:15;;;;;;;;;;;;;;;;;;5049375;28;1633;-63
2022/08/24 11:19:41;;;;;;;;;;;;;;;;;;5050793;28;1267;-63
2022/08/24 11:22:42;;;;;;;;;;;;;;;;;;5049335;28;1341;-63
2022/08/24 11:25:12;;;;;;;;;;;;;;;;;;4951045;28;1966;-63
2022/08/24 11:27:44;;;;;;;;;;;;;;;;;;5032313;28;1859;-63
2022/08/24 11:30:30;;;;;;;;;;;;;;;;;;5041571;28;1164;-63
2022/08/24 11:32:57;;;;;;;;;;;;;;;;;;5050745;28;1238;-63
2022/08/24 11:35:25;;;;;;;;;;;;;;;;;;5051485;28;1255;-63
2022/08/24 11:37:53;;;;;;;;;;;;;;;;;;5049121;28;1349;-63
2022/08/24 11:40:20;;;;;;;;;;;;;;;;;;5036335;28;1413;-62
2022/08/24 11:42:50;;;;;;;;;;;;;;;;;;5048907;28;1416;-63
2022/08/24 11:45:27;;;;;;;;;;;;;;;;;;5050607;28;2008;-63
2022/08/24 11:48:02;;;;;;;;;;;;;;;;;;5051494;28;1216;-63
2022/08/24 11:50:47;;;;;;;;;;;;;;;;;;5050190;28;1357;-62
2022/08/24 11:53:30;;;;;;;;;;;;;;;;;;5048312;28;1477;-62
2022/08/24 11:56:06;;;;;;;;;;;;;;;;;;5051895;28;1415;-62
2022/08/24 11:58:50;;;;;;;;;;;;;;;;;;5048308;28;1706;-62
2022/08/24 12:01:24;;;;;;;;;;;;;;;;;;5049848;28;1292;-62
2022/08/24 12:03:56;;;;;;;;;;;;;;;;;;5050385;28;1425;-63
2022/08/24 12:06:21;;;;;;;;;;;;;;;;;;5045267;28;1997;-63
2022/08/24 12:08:56;;;;;;;;;;;;;;;;;;5044961;28;1318;-62
2022/08/24 12:11:22;;;;;;;;;;;;;;;;;;5047701;28;1354;-63
2022/08/24 12:14:16;;;;;;;;;;;;;;;;;;5052005;28;1267;-63
2022/08/24 12:16:46;;;;;;;;;;;;;;;;;;5025727;28;1655;-63
2022/08/24 12:19:18;;;;;;;;;;;;;;;;;;5043437;28;1247;-63
2022/08/24 12:21:45;;;;;;;;;;;;;;;;;;5054158;28;1247;-63
2022/08/24 12:24:13;;;;;;;;;;;;;;;;;;5053819;28;1306;-64
2022/08/24 12:26:46;;;;;;;;;;;;;;;;;;5045226;28;1902;-64
2022/08/24 12:29:14;;;;;;;;;;;;;;;;;;5025994;28;1637;-64
2022/08/24 12:31:42;;;;;;;;;;;;;;;;;;5045564;28;1293;-64
2022/08/24 12:34:10;;;;;;;;;;;;;;;;;;5041118;28;1236;-64
2022/08/24 12:36:39;;;;;;;;;;;;;;;;;;5045252;28;1645;-64
2022/08/24 12:39:11;;;;;;;;;;;;;;;;;;5040452;28;1216;-64
2022/08/24 12:41:46;;;;;;;;;;;;;;;;;;5041277;28;811;-64
2022/08/24 12:44:13;;;;;;;;;;;;;;;;;;5039859;28;1630;-64
2022/08/24 12:46:39;;;;;;;;;;;;;;;;;;5046172;28;1906;-64
2022/08/24 12:49:18;;;;;;;;;;;;;;;;;;5031698;28;1188;-64
2022/08/24 12:52:01;;;;;;;;;;;;;;;;;;5047396;28;1590;-64
2022/08/24 12:54:27;;;;;;;;;;;;;;;;;;5040059;28;1559;-64
2022/08/24 12:56:58;;;;;;;;;;;;;;;;;;5040735;28;1483;-64
2022/08/24 12:59:25;;;;;;;;;;;;;;;;;;5041238;28;1566;-62
2022/08/24 13:02:00;;;;;;;;;;;;;;;;;;5032705;28;1252;-62
2022/08/24 13:04:28;;;;;;;;;;;;;;;;;;5038355;28;1973;-63
2022/08/24 13:07:04;;;;;;;;;;;;;;;;;;5048039;28;1263;-62
2022/08/24 13:09:32;;;;;;;;;;;;;;;;;;5043794;28;1592;-62
2022/08/24 13:11:58;;;;;;;;;;;;;;;;;;5044472;28;889;-61
2022/08/24 13:14:25;;;;;;;;;;;;;;;;;;5025575;28;1440;-62
2022/08/24 13:16:50;;;;;;;;;;;;;;;;;;5024531;28;989;-62
2022/08/24 13:19:15;;;;;;;;;;;;;;;;;;5049974;28;1545;-63
2022/08/24 13:21:45;;;;;;;;;;;;;;;;;;5043788;28;1566;-63
2022/08/24 13:24:31;;;;;;;;;;;;;;;;;;5043990;28;1513;-63
2022/08/24 13:27:16;;;;;;;;;;;;;;;;;;5029361;28;1429;-62
2022/08/24 13:29:43;;;;;;;;;;;;;;;;;;5043495;28;1093;-63
2022/08/24 13:32:16;;;;;;;;;;;;;;;;;;5043871;28;1005;-63
2022/08/24 13:34:43;;;;;;;;;;;;;;;;;;5048685;28;1497;-62
2022/08/24 13:37:22;;;;;;;;;;;;;;;;;;5042669;28;1343;-63
2022/08/24 13:40:09;;;;;;;;;;;;;;;;;;5039034;28;1514;-63
2022/08/24 13:42:34;;;;;;;;;;;;;;;;;;5042214;28;1574;-63
2022/08/24 13:45:23;;;;;;;;;;;;;;;;;;5035082;28;1894;-63
2022/08/24 13:48:08;;;;;;;;;;;;;;;;;;5034449;28;1456;-63
2022/08/24 13:50:52;;;;;;;;;;;;;;;;;;5028425;28;1525;-63
2022/08/24 13:53:23;;;;;;;;;;;;;;;;;;5042371;28;1543;-63
2022/08/24 13:55:50;;;;;;;;;;;;;;;;;;5042591;28;1520;-62
2022/08/24 13:58:23;;;;;;;;;;;;;;;;;;5045167;28;1449;-69
2022/08/24 14:00:55;;;;;;;;;;;;;;;;;;5052519;28;1299;-69
2022/08/24 14:03:21;;;;;;;;;;;;;;;;;;5049971;28;1760;-69
2022/08/24 14:05:52;;;;;;;;;;;;;;;;;;5052086;28;1890;-69
2022/08/24 14:08:23;;;;;;;;;;;;;;;;;;5055455;28;1353;-68
2022/08/24 14:10:48;;;;;;;;;;;;;;;;;;5050672;28;1306;-68
2022/08/24 14:13:13;;;;;;;;;;;;;;;;;;5052316;28;1294;-69
2022/08/24 14:15:49;;;;;;;;;;;;;;;;;;5054682;28;1267;-68
2022/08/24 14:18:32;;;;;;;;;;;;;;;;;;5054299;28;1464;-68
2022/08/24 14:21:02;;;;;;;;;;;;;;;;;;5055744;28;1349;-68
2022/08/24 14:23:27;;;;;;;;;;;;;;;;;;5049656;28;1397;-69
2022/08/24 14:26:10;;;;;;;;;;;;;;;;;;5047216;28;1894;-68
2022/08/24 14:28:38;;;;;;;;;;;;;;;;;;5048718;28;1264;-69
2022/08/24 14:31:18;;;;;;;;;;;;;;;;;;5045115;28;1297;-69
2022/08/24 14:33:56;;;;;;;;;;;;;;;;;;5051695;28;1377;-68
2022/08/24 14:36:28;;;;;;;;;;;;;;;;;;5052375;28;1345;-68
2022/08/24 14:38:56;;;;;;;;;;;;;;;;;;5048065;28;1362;-68
2022/08/24 14:41:24;;;;;;;;;;;;;;;;;;5050069;28;1325;-68
2022/08/24 14:44:08;;;;;;;;;;;;;;;;;;5051728;28;1266;-68
2022/08/24 14:46:33;;;;;;;;;;;;;;;;;;5054625;28;1879;-68
2022/08/24 14:49:01;;;;;;;;;;;;;;;;;;5050761;28;1322;-68
2022/08/24 14:51:36;;;;;;;;;;;;;;;;;;5051930;28;1318;-69
2022/08/24 14:54:10;;;;;;;;;;;;;;;;;;5050543;28;1487;-69
2022/08/24 14:56:38;;;;;;;;;;;;;;;;;;5049818;28;1279;-68
2022/08/24 14:59:22;;;;;;;;;;;;;;;;;;5048389;28;1623;-68
2022/08/24 15:01:49;;;;;;;;;;;;;;;;;;5048992;28;1481;-69
2022/08/24 15:04:34;;;;;;;;;;;;;;;;;;5048407;28;1357;-68
2022/08/24 15:07:26;;;;;;;;;;;;;;;;;;5051574;28;1260;-69
2022/08/24 15:09:52;;;;;;;;;;;;;;;;;;5042511;28;1398;-66
2022/08/24 15:12:36;;;;;;;;;;;;;;;;;;5041773;28;1953;-69
2022/08/24 15:15:01;;;;;;;;;;;;;;;;;;5046490;28;1488;-70
2022/08/24 15:17:34;;;;;;;;;;;;;;;;;;5024311;28;1657;-68
2022/08/24 15:20:05;;;;;;;;;;;;;;;;;;5041718;28;1426;-71
2022/08/24 15:22:34;;;;;;;;;;;;;;;;;;5044997;28;1753;-70
2022/08/24 15:25:02;;;;;;;;;;;;;;;;;;5048713;28;1894;-70
2022/08/24 15:27:37;;;;;;;;;;;;;;;;;;5053258;28;1250;-70
2022/08/24 15:30:04;;;;;;;;;;;;;;;;;;5051726;28;1339;-68
2022/08/24 15:32:47;;;;;;;;;;;;;;;;;;5030812;28;1663;-68
2022/08/24 15:35:42;;;;;;;;;;;;;;;;;;5052892;28;1236;-68
2022/08/24 15:38:24;;;;;;;;;;;;;;;;;;5025297;28;1655;-68
2022/08/24 15:40:51;;;;;;;;;;;;;;;;;;5050024;28;1244;-68
2022/08/24 15:43:16;;;;;;;;;;;;;;;;;;5048895;28;1449;-68
2022/08/24 15:45:45;;;;;;;;;;;;;;;;;;5051160;28;1898;-68
2022/08/24 15:48:13;;;;;;;;;;;;;;;;;;5047231;28;1421;-69
2022/08/24 15:50:40;;;;;;;;;;;;;;;;;;5051757;28;1329;-68
2022/08/24 15:53:25;;;;;;;;;;;;;;;;;;5051487;28;1410;-68
2022/08/24 15:55:50;;;;;;;;;;;;;;;;;;5051910;28;1353;-68
2022/08/24 15:58:22;;;;;;;;;;;;;;;;;;5048871;28;1585;-68
2022/08/24 16:03:38;;;;;;;;;;;;;;;;;;5013044;28;1235;-68
2022/08/24 16:06:15;;;;;;;;;;;;;;;;;;5051555;28;1910;-69
2022/08/24 16:08:56;;;;;;;;;;;;;;;;;;5051741;28;1413;-69
2022/08/24 16:11:28;;;;;;;;;;;;;;;;;;5051011;28;1487;-69
2022/08/24 16:13:53;;;;;;;;;;;;;;;;;;5051223;28;1294;-69
2022/08/24 16:16:28;;;;;;;;;;;;;;;;;;5049170;28;1310;-69
2022/08/24 16:18:56;;;;;;;;;;;;;;;;;;5047669;28;1298;-69
2022/08/24 16:21:33;;;;;;;;;;;;;;;;;;5051195;28;1402;-69
2022/08/24 16:24:01;;;;;;;;;;;;;;;;;;5050177;28;1358;-69
2022/08/24 16:26:28;;;;;;;;;;;;;;;;;;5046288;28;1975;-70
2022/08/24 16:28:54;;;;;;;;;;;;;;;;;;5043161;28;1347;-70
2022/08/24 16:31:38;;;;;;;;;;;;;;;;;;5042294;28;1700;-69
2022/08/24 16:34:21;;;;;;;;;;;;;;;;;;5046949;28;1708;-69
2022/08/24 16:36:47;;;;;;;;;;;;;;;;;;5049890;28;1243;-69
2022/08/24 16:39:12;;;;;;;;;;;;;;;;;;5049273;28;1345;-69
2022/08/24 16:41:38;;;;;;;;;;;;;;;;;;5050692;28;1258;-69
2022/08/24 16:44:04;;;;;;;;;;;;;;;;;;5051037;28;1303;-70
2022/08/24 16:46:29;;;;;;;;;;;;;;;;;;5046596;28;1967;-69
2022/08/24 16:48:54;;;;;;;;;;;;;;;;;;5041131;28;854;-70
2022/08/24 16:51:23;;;;;;;;;;;;;;;;;;5040943;28;885;-70
2022/08/24 16:53:48;;;;;;;;;;;;;;;;;;5046846;28;1566;-70
2022/08/24 16:56:13;;;;;;;;;;;;;;;;;;5043900;28;1462;-70
2022/08/24 16:58:39;;;;;;;;;;;;;;;;;;5061059;28;934;-70
2022/08/24 17:01:04;;;;;;;;;;;;;;;;;;5060647;28;1440;-69
2022/08/24 17:03:30;;;;;;;;;;;;;;;;;;5057644;28;1546;-69
2022/08/24 17:05:56;;;;;;;;;;;;;;;;;;5052472;28;1910;-69
2022/08/24 17:08:21;;;;;;;;;;;;;;;;;;5050543;28;1471;-69
2022/08/24 17:10:46;;;;;;;;;;;;;;;;;;5040402;28;1487;-69
2022/08/24 17:13:11;;;;;;;;;;;;;;;;;;5040829;28;953;-69
2022/08/24 17:15:36;;;;;;;;;;;;;;;;;;5040467;28;1181;-70
2022/08/24 17:18:03;;;;;;;;;;;;;;;;;;5040155;28;1380;-70
2022/08/24 17:20:29;;;;;;;;;;;;;;;;;;5040458;28;1096;-69
2022/08/24 17:22:54;;;;;;;;;;;;;;;;;;5040601;28;1549;-69
2022/08/24 17:25:20;;;;;;;;;;;;;;;;;;5044777;28;1886;-69
2022/08/24 17:27:46;;;;;;;;;;;;;;;;;;5035512;28;1574;-69
2022/08/24 17:30:15;;;;;;;;;;;;;;;;;;5020627;28;1015;-71
2022/08/24 17:32:40;;;;;;;;;;;;;;;;;;5022495;28;1528;-70